Hicks Bay, New Zealand
Current Conditions -  °F | °C
As of 8:30 PM on Saturday 25 Oct 2014 (Local Time) from NZAA Reporting Station
Clear Clear  
Wind Chill: 54°   Ceiling: Unl
Heat Index: 54°   Visibility: 6mi
Dew Point: 46°   Wind: 12mph
Humidity: 77%   Direction: 210°SSW
Pressure: 30.21"   Gusts: NA
Location:  37.59°S, 178.29°E
Report Text: NZAA 250830Z AUTO 21010KT 9999 NCD 12/08 Q1023 NOSIG
Loading
Personal Weather Stations






























Interactive Weather Map
Tropical Storm Tracking
New forecast layout! Learn more

10-Day Weather Forecast

Advertisements
Track Severe Weather on mobile